sensor_id;sensor_type;location;lat;lon;timestamp;P1;durP1;ratioP1;P2;durP2;ratioP2
29466;SDS011;60968;37.490;-122.288;2023-03-21T00:01:26;14.83;;;2.03;;
29466;SDS011;60968;37.490;-122.288;2023-03-21T00:04:27;15.30;;;2.43;;
29466;SDS011;60968;37.490;-122.288;2023-03-21T00:07:31;12.33;;;2.33;;
29466;SDS011;60968;37.490;-122.288;2023-03-21T00:10:32;8.47;;;1.77;;
29466;SDS011;60968;37.490;-122.288;2023-03-21T00:13:34;8.47;;;2.03;;
29466;SDS011;60968;37.490;-122.288;2023-03-21T00:16:35;13.17;;;1.90;;
29466;SDS011;60968;37.490;-122.288;2023-03-21T00:19:38;22.77;;;2.20;;
29466;SDS011;60968;37.490;-122.288;2023-03-21T00:22:41;14.73;;;2.87;;
29466;SDS011;60968;37.490;-122.288;2023-03-21T00:25:42;17.23;;;1.90;;
29466;SDS011;60968;37.490;-122.288;2023-03-21T00:28:42;15.60;;;2.00;;
29466;SDS011;60968;37.490;-122.288;2023-03-21T00:31:44;11.30;;;1.63;;
29466;SDS011;60968;37.490;-122.288;2023-03-21T00:34:46;11.70;;;2.33;;
29466;SDS011;60968;37.490;-122.288;2023-03-21T00:37:48;9.13;;;1.60;;
29466;SDS011;60968;37.490;-122.288;2023-03-21T00:40:49;6.97;;;1.97;;
29466;SDS011;60968;37.490;-122.288;2023-03-21T00:43:52;9.00;;;2.10;;
29466;SDS011;60968;37.490;-122.288;2023-03-21T00:46:52;11.40;;;2.03;;
29466;SDS011;60968;37.490;-122.288;2023-03-21T00:49:55;12.07;;;2.50;;
29466;SDS011;60968;37.490;-122.288;2023-03-21T00:52:56;6.93;;;1.70;;
29466;SDS011;60968;37.490;-122.288;2023-03-21T00:55:58;5.97;;;1.87;;
29466;SDS011;60968;37.490;-122.288;2023-03-21T00:59:03;12.40;;;1.63;;
29466;SDS011;60968;37.490;-122.288;2023-03-21T01:02:03;12.47;;;1.97;;
29466;SDS011;60968;37.490;-122.288;2023-03-21T01:05:08;13.87;;;2.10;;
29466;SDS011;60968;37.490;-122.288;2023-03-21T01:08:09;9.50;;;1.70;;
29466;SDS011;60968;37.490;-122.288;2023-03-21T01:11:11;7.33;;;2.13;;
29466;SDS011;60968;37.490;-122.288;2023-03-21T01:14:12;11.27;;;1.90;;
29466;SDS011;60968;37.490;-122.288;2023-03-21T01:17:17;14.77;;;2.30;;
29466;SDS011;60968;37.490;-122.288;2023-03-21T01:20:20;18.07;;;2.90;;
29466;SDS011;60968;37.490;-122.288;2023-03-21T01:23:21;12.83;;;2.57;;
29466;SDS011;60968;37.490;-122.288;2023-03-21T01:26:22;12.30;;;2.33;;
29466;SDS011;60968;37.490;-122.288;2023-03-21T01:29:26;10.43;;;1.97;;
29466;SDS011;60968;37.490;-122.288;2023-03-21T01:32:26;8.83;;;1.90;;
29466;SDS011;60968;37.490;-122.288;2023-03-21T01:35:26;10.93;;;2.30;;
29466;SDS011;60968;37.490;-122.288;2023-03-21T01:38:27;14.23;;;2.30;;
29466;SDS011;60968;37.490;-122.288;2023-03-21T01:41:28;8.07;;;2.13;;
29466;SDS011;60968;37.490;-122.288;2023-03-21T01:44:30;11.37;;;2.13;;
29466;SDS011;60968;37.490;-122.288;2023-03-21T01:47:37;12.27;;;1.97;;
29466;SDS011;60968;37.490;-122.288;2023-03-21T01:50:43;6.47;;;1.73;;
29466;SDS011;60968;37.490;-122.288;2023-03-21T01:53:43;8.97;;;2.17;;
29466;SDS011;60968;37.490;-122.288;2023-03-21T01:56:45;13.30;;;2.00;;
29466;SDS011;60968;37.490;-122.288;2023-03-21T01:59:49;8.17;;;1.80;;
29466;SDS011;60968;37.490;-122.288;2023-03-21T02:02:50;19.97;;;3.33;;
29466;SDS011;60968;37.490;-122.288;2023-03-21T02:08:59;17.40;;;2.40;;
29466;SDS011;60968;37.490;-122.288;2023-03-21T02:12:01;9.20;;;2.10;;
29466;SDS011;60968;37.490;-122.288;2023-03-21T02:15:05;7.67;;;2.17;;
29466;SDS011;60968;37.490;-122.288;2023-03-21T02:18:16;11.20;;;1.73;;
29466;SDS011;60968;37.490;-122.288;2023-03-21T02:21:32;11.60;;;1.50;;
29466;SDS011;60968;37.490;-122.288;2023-03-21T02:37:38;8.13;;;1.57;;
29466;SDS011;60968;37.490;-122.288;2023-03-21T02:43:53;11.23;;;2.00;;
29466;SDS011;60968;37.490;-122.288;2023-03-21T02:49:55;6.47;;;1.67;;
29466;SDS011;60968;37.490;-122.288;2023-03-21T02:52:57;12.93;;;2.20;;
29466;SDS011;60968;37.490;-122.288;2023-03-21T02:55:58;10.63;;;2.00;;
29466;SDS011;60968;37.490;-122.288;2023-03-21T02:58:59;25.17;;;2.70;;
29466;SDS011;60968;37.490;-122.288;2023-03-21T03:02:00;7.33;;;1.67;;
29466;SDS011;60968;37.490;-122.288;2023-03-21T03:05:08;6.60;;;1.73;;
29466;SDS011;60968;37.490;-122.288;2023-03-21T03:08:22;13.77;;;2.17;;
29466;SDS011;60968;37.490;-122.288;2023-03-21T03:11:31;10.47;;;2.17;;
29466;SDS011;60968;37.490;-122.288;2023-03-21T03:21:16;6.50;;;1.27;;
29466;SDS011;60968;37.490;-122.288;2023-03-21T03:27:14;12.60;;;2.20;;
29466;SDS011;60968;37.490;-122.288;2023-03-21T03:30:16;9.60;;;1.90;;
29466;SDS011;60968;37.490;-122.288;2023-03-21T03:33:17;7.77;;;1.80;;
29466;SDS011;60968;37.490;-122.288;2023-03-21T03:36:20;4.50;;;1.70;;
29466;SDS011;60968;37.490;-122.288;2023-03-21T03:39:34;11.73;;;2.10;;
29466;SDS011;60968;37.490;-122.288;2023-03-21T03:45:59;7.90;;;1.60;;
29466;SDS011;60968;37.490;-122.288;2023-03-21T03:49:07;7.23;;;1.80;;
29466;SDS011;60968;37.490;-122.288;2023-03-21T03:55:13;6.50;;;1.50;;
29466;SDS011;60968;37.490;-122.288;2023-03-21T03:58:18;11.73;;;1.50;;
29466;SDS011;60968;37.490;-122.288;2023-03-21T04:01:19;10.57;;;2.17;;
29466;SDS011;60968;37.490;-122.288;2023-03-21T04:04:20;10.07;;;1.70;;
29466;SDS011;60968;37.490;-122.288;2023-03-21T04:07:20;6.83;;;1.73;;
29466;SDS011;60968;37.490;-122.288;2023-03-21T04:10:21;14.77;;;2.17;;
29466;SDS011;60968;37.490;-122.288;2023-03-21T04:13:21;9.27;;;1.90;;
29466;SDS011;60968;37.490;-122.288;2023-03-21T04:16:22;15.67;;;1.73;;
29466;SDS011;60968;37.490;-122.288;2023-03-21T04:19:23;12.97;;;1.70;;
29466;SDS011;60968;37.490;-122.288;2023-03-21T04:22:25;6.40;;;1.80;;
29466;SDS011;60968;37.490;-122.288;2023-03-21T04:25:25;10.53;;;2.10;;
29466;SDS011;60968;37.490;-122.288;2023-03-21T04:28:26;11.30;;;1.93;;
29466;SDS011;60968;37.490;-122.288;2023-03-21T04:31:26;4.67;;;1.40;;
29466;SDS011;60968;37.490;-122.288;2023-03-21T04:34:27;11.73;;;2.10;;
29466;SDS011;60968;37.490;-122.288;2023-03-21T04:37:27;5.20;;;1.83;;
29466;SDS011;60968;37.490;-122.288;2023-03-21T04:40:28;4.50;;;1.70;;
29466;SDS011;60968;37.490;-122.288;2023-03-21T04:43:28;5.87;;;1.67;;
29466;SDS011;60968;37.490;-122.288;2023-03-21T04:46:31;7.60;;;1.70;;
29466;SDS011;60968;37.490;-122.288;2023-03-21T04:49:32;11.23;;;1.57;;
29466;SDS011;60968;37.490;-122.288;2023-03-21T04:52:33;7.47;;;1.90;;
29466;SDS011;60968;37.490;-122.288;2023-03-21T04:55:33;13.60;;;1.77;;
29466;SDS011;60968;37.490;-122.288;2023-03-21T04:58:34;13.77;;;1.90;;
29466;SDS011;60968;37.490;-122.288;2023-03-21T05:01:35;9.67;;;2.00;;
29466;SDS011;60968;37.490;-122.288;2023-03-21T05:04:36;8.73;;;2.23;;
29466;SDS011;60968;37.490;-122.288;2023-03-21T05:07:38;8.90;;;1.60;;
29466;SDS011;60968;37.490;-122.288;2023-03-21T05:10:39;5.27;;;1.77;;
29466;SDS011;60968;37.490;-122.288;2023-03-21T05:13:39;6.03;;;1.80;;
29466;SDS011;60968;37.490;-122.288;2023-03-21T05:16:41;7.27;;;1.80;;
29466;SDS011;60968;37.490;-122.288;2023-03-21T05:19:41;6.20;;;1.33;;
29466;SDS011;60968;37.490;-122.288;2023-03-21T05:22:42;7.60;;;1.97;;
29466;SDS011;60968;37.490;-122.288;2023-03-21T05:25:46;6.30;;;1.57;;
29466;SDS011;60968;37.490;-122.288;2023-03-21T05:28:49;3.77;;;1.33;;
29466;SDS011;60968;37.490;-122.288;2023-03-21T05:31:51;5.17;;;1.47;;
29466;SDS011;60968;37.490;-122.288;2023-03-21T05:34:51;11.57;;;1.80;;
29466;SDS011;60968;37.490;-122.288;2023-03-21T05:37:52;5.33;;;1.87;;
29466;SDS011;60968;37.490;-122.288;2023-03-21T05:40:53;3.27;;;1.50;;
29466;SDS011;60968;37.490;-122.288;2023-03-21T05:43:53;5.47;;;1.60;;
29466;SDS011;60968;37.490;-122.288;2023-03-21T05:46:54;5.93;;;1.73;;
29466;SDS011;60968;37.490;-122.288;2023-03-21T05:49:55;12.73;;;2.83;;
29466;SDS011;60968;37.490;-122.288;2023-03-21T05:53:02;10.40;;;1.90;;
29466;SDS011;60968;37.490;-122.288;2023-03-21T05:56:02;6.20;;;1.67;;
29466;SDS011;60968;37.490;-122.288;2023-03-21T05:59:03;8.30;;;1.63;;
29466;SDS011;60968;37.490;-122.288;2023-03-21T06:02:04;8.70;;;1.93;;
29466;SDS011;60968;37.490;-122.288;2023-03-21T06:05:06;7.00;;;1.50;;
29466;SDS011;60968;37.490;-122.288;2023-03-21T06:08:09;14.83;;;2.37;;
29466;SDS011;60968;37.490;-122.288;2023-03-21T06:11:23;10.33;;;1.90;;
29466;SDS011;60968;37.490;-122.288;2023-03-21T06:14:25;10.00;;;1.50;;
29466;SDS011;60968;37.490;-122.288;2023-03-21T06:17:25;12.77;;;2.70;;
29466;SDS011;60968;37.490;-122.288;2023-03-21T06:20:26;9.10;;;1.73;;
29466;SDS011;60968;37.490;-122.288;2023-03-21T06:23:26;9.20;;;2.10;;
29466;SDS011;60968;37.490;-122.288;2023-03-21T06:26:29;9.97;;;2.27;;
29466;SDS011;60968;37.490;-122.288;2023-03-21T06:29:31;7.90;;;2.00;;
29466;SDS011;60968;37.490;-122.288;2023-03-21T06:32:31;7.13;;;1.73;;
29466;SDS011;60968;37.490;-122.288;2023-03-21T06:35:34;12.00;;;2.10;;
29466;SDS011;60968;37.490;-122.288;2023-03-21T06:38:35;6.73;;;2.00;;
29466;SDS011;60968;37.490;-122.288;2023-03-21T06:41:35;12.13;;;2.53;;
29466;SDS011;60968;37.490;-122.288;2023-03-21T06:44:36;12.33;;;2.40;;
29466;SDS011;60968;37.490;-122.288;2023-03-21T06:47:37;16.10;;;2.80;;
29466;SDS011;60968;37.490;-122.288;2023-03-21T06:50:39;10.57;;;2.70;;
29466;SDS011;60968;37.490;-122.288;2023-03-21T06:53:39;12.90;;;2.60;;
29466;SDS011;60968;37.490;-122.288;2023-03-21T06:56:40;11.43;;;2.83;;
29466;SDS011;60968;37.490;-122.288;2023-03-21T06:59:43;14.60;;;2.73;;
29466;SDS011;60968;37.490;-122.288;2023-03-21T07:02:44;12.73;;;2.80;;
29466;SDS011;60968;37.490;-122.288;2023-03-21T07:05:44;11.73;;;2.40;;
29466;SDS011;60968;37.490;-122.288;2023-03-21T07:08:45;10.27;;;2.20;;
29466;SDS011;60968;37.490;-122.288;2023-03-21T07:11:45;17.47;;;2.60;;
29466;SDS011;60968;37.490;-122.288;2023-03-21T07:14:45;19.67;;;3.47;;
29466;SDS011;60968;37.490;-122.288;2023-03-21T07:17:46;6.93;;;2.33;;
29466;SDS011;60968;37.490;-122.288;2023-03-21T07:20:47;13.77;;;3.07;;
29466;SDS011;60968;37.490;-122.288;2023-03-21T07:23:47;9.73;;;2.17;;
29466;SDS011;60968;37.490;-122.288;2023-03-21T07:26:48;15.40;;;2.53;;
29466;SDS011;60968;37.490;-122.288;2023-03-21T07:29:48;9.60;;;2.70;;
29466;SDS011;60968;37.490;-122.288;2023-03-21T07:32:49;9.77;;;2.07;;
29466;SDS011;60968;37.490;-122.288;2023-03-21T07:35:50;6.87;;;1.80;;
29466;SDS011;60968;37.490;-122.288;2023-03-21T07:38:50;7.20;;;1.83;;
29466;SDS011;60968;37.490;-122.288;2023-03-21T07:41:52;10.20;;;1.90;;
29466;SDS011;60968;37.490;-122.288;2023-03-21T07:44:53;9.53;;;2.17;;
29466;SDS011;60968;37.490;-122.288;2023-03-21T07:47:53;10.57;;;2.30;;
29466;SDS011;60968;37.490;-122.288;2023-03-21T07:50:53;6.63;;;1.90;;
29466;SDS011;60968;37.490;-122.288;2023-03-21T07:53:55;8.87;;;2.03;;
29466;SDS011;60968;37.490;-122.288;2023-03-21T07:56:56;12.33;;;2.27;;
29466;SDS011;60968;37.490;-122.288;2023-03-21T07:59:56;12.10;;;1.90;;
29466;SDS011;60968;37.490;-122.288;2023-03-21T08:02:57;7.87;;;2.17;;
29466;SDS011;60968;37.490;-122.288;2023-03-21T08:05:58;8.47;;;2.20;;
29466;SDS011;60968;37.490;-122.288;2023-03-21T08:08:59;10.20;;;2.47;;
29466;SDS011;60968;37.490;-122.288;2023-03-21T08:12:01;6.07;;;1.73;;
29466;SDS011;60968;37.490;-122.288;2023-03-21T08:15:01;6.53;;;2.03;;
29466;SDS011;60968;37.490;-122.288;2023-03-21T08:18:02;7.57;;;1.93;;
29466;SDS011;60968;37.490;-122.288;2023-03-21T08:21:02;13.40;;;2.90;;
29466;SDS011;60968;37.490;-122.288;2023-03-21T08:24:04;9.23;;;2.00;;
29466;SDS011;60968;37.490;-122.288;2023-03-21T08:27:05;10.83;;;2.63;;
29466;SDS011;60968;37.490;-122.288;2023-03-21T08:30:05;13.83;;;2.53;;
29466;SDS011;60968;37.490;-122.288;2023-03-21T08:33:07;9.63;;;2.47;;
29466;SDS011;60968;37.490;-122.288;2023-03-21T08:36:08;6.93;;;2.00;;
29466;SDS011;60968;37.490;-122.288;2023-03-21T08:39:08;15.73;;;3.07;;
29466;SDS011;60968;37.490;-122.288;2023-03-21T08:42:10;15.30;;;2.87;;
29466;SDS011;60968;37.490;-122.288;2023-03-21T08:45:11;10.17;;;2.73;;
29466;SDS011;60968;37.490;-122.288;2023-03-21T08:48:12;8.77;;;2.60;;
29466;SDS011;60968;37.490;-122.288;2023-03-21T08:51:12;7.93;;;2.47;;
29466;SDS011;60968;37.490;-122.288;2023-03-21T08:54:18;14.43;;;3.13;;
29466;SDS011;60968;37.490;-122.288;2023-03-21T08:57:22;7.93;;;2.40;;
29466;SDS011;60968;37.490;-122.288;2023-03-21T09:00:23;10.20;;;2.47;;
29466;SDS011;60968;37.490;-122.288;2023-03-21T09:03:24;12.17;;;2.73;;
29466;SDS011;60968;37.490;-122.288;2023-03-21T09:06:25;17.27;;;2.50;;
29466;SDS011;60968;37.490;-122.288;2023-03-21T09:09:26;8.40;;;2.60;;
29466;SDS011;60968;37.490;-122.288;2023-03-21T09:12:27;8.10;;;2.00;;
29466;SDS011;60968;37.490;-122.288;2023-03-21T09:15:28;11.43;;;2.57;;
29466;SDS011;60968;37.490;-122.288;2023-03-21T09:18:29;9.63;;;2.10;;
29466;SDS011;60968;37.490;-122.288;2023-03-21T09:21:30;12.90;;;2.37;;
29466;SDS011;60968;37.490;-122.288;2023-03-21T09:24:31;13.37;;;1.93;;
29466;SDS011;60968;37.490;-122.288;2023-03-21T09:27:31;13.60;;;2.90;;
29466;SDS011;60968;37.490;-122.288;2023-03-21T09:30:33;8.10;;;2.23;;
29466;SDS011;60968;37.490;-122.288;2023-03-21T09:33:33;10.23;;;2.33;;
29466;SDS011;60968;37.490;-122.288;2023-03-21T09:36:34;14.47;;;2.80;;
29466;SDS011;60968;37.490;-122.288;2023-03-21T09:39:35;6.13;;;2.47;;
29466;SDS011;60968;37.490;-122.288;2023-03-21T09:42:45;8.90;;;2.00;;
29466;SDS011;60968;37.490;-122.288;2023-03-21T09:49:06;12.27;;;2.97;;
29466;SDS011;60968;37.490;-122.288;2023-03-21T09:52:11;12.57;;;2.40;;
29466;SDS011;60968;37.490;-122.288;2023-03-21T09:55:19;6.50;;;2.07;;
29466;SDS011;60968;37.490;-122.288;2023-03-21T10:01:30;12.13;;;1.90;;
29466;SDS011;60968;37.490;-122.288;2023-03-21T10:04:30;12.03;;;2.83;;
29466;SDS011;60968;37.490;-122.288;2023-03-21T10:07:31;8.03;;;1.97;;
29466;SDS011;60968;37.490;-122.288;2023-03-21T10:10:38;11.07;;;2.63;;
29466;SDS011;60968;37.490;-122.288;2023-03-21T10:13:50;10.07;;;1.97;;
29466;SDS011;60968;37.490;-122.288;2023-03-21T10:16:54;10.87;;;2.33;;
29466;SDS011;60968;37.490;-122.288;2023-03-21T10:20:03;17.07;;;2.97;;
29466;SDS011;60968;37.490;-122.288;2023-03-21T10:23:11;6.07;;;2.57;;
29466;SDS011;60968;37.490;-122.288;2023-03-21T10:26:12;9.30;;;2.30;;
29466;SDS011;60968;37.490;-122.288;2023-03-21T10:29:13;13.13;;;2.40;;
29466;SDS011;60968;37.490;-122.288;2023-03-21T10:32:14;11.03;;;2.27;;
29466;SDS011;60968;37.490;-122.288;2023-03-21T10:35:16;10.97;;;1.80;;
29466;SDS011;60968;37.490;-122.288;2023-03-21T10:38:18;11.63;;;2.23;;
29466;SDS011;60968;37.490;-122.288;2023-03-21T10:41:21;13.87;;;2.07;;
29466;SDS011;60968;37.490;-122.288;2023-03-21T10:44:22;9.60;;;2.23;;
29466;SDS011;60968;37.490;-122.288;2023-03-21T10:47:29;9.50;;;2.50;;
29466;SDS011;60968;37.490;-122.288;2023-03-21T10:50:30;12.23;;;2.87;;
29466;SDS011;60968;37.490;-122.288;2023-03-21T10:53:31;9.63;;;2.47;;
29466;SDS011;60968;37.490;-122.288;2023-03-21T10:56:36;5.30;;;2.17;;
29466;SDS011;60968;37.490;-122.288;2023-03-21T10:59:39;12.37;;;2.57;;
29466;SDS011;60968;37.490;-122.288;2023-03-21T11:02:45;14.30;;;2.53;;
29466;SDS011;60968;37.490;-122.288;2023-03-21T11:05:51;10.43;;;2.50;;
29466;SDS011;60968;37.490;-122.288;2023-03-21T11:12:29;11.30;;;2.30;;
29466;SDS011;60968;37.490;-122.288;2023-03-21T11:15:48;15.33;;;2.60;;
29466;SDS011;60968;37.490;-122.288;2023-03-21T11:18:51;15.77;;;2.50;;
29466;SDS011;60968;37.490;-122.288;2023-03-21T11:21:52;12.43;;;2.93;;
29466;SDS011;60968;37.490;-122.288;2023-03-21T11:24:57;16.60;;;2.83;;
29466;SDS011;60968;37.490;-122.288;2023-03-21T11:27:59;14.47;;;3.40;;
29466;SDS011;60968;37.490;-122.288;2023-03-21T11:31:04;17.57;;;3.57;;
29466;SDS011;60968;37.490;-122.288;2023-03-21T11:34:06;11.70;;;2.50;;
29466;SDS011;60968;37.490;-122.288;2023-03-21T11:37:16;12.37;;;3.30;;
29466;SDS011;60968;37.490;-122.288;2023-03-21T11:40:25;16.33;;;3.23;;
29466;SDS011;60968;37.490;-122.288;2023-03-21T11:43:30;13.07;;;3.00;;
29466;SDS011;60968;37.490;-122.288;2023-03-21T11:46:31;14.33;;;3.20;;
29466;SDS011;60968;37.490;-122.288;2023-03-21T11:49:32;6.53;;;2.50;;
29466;SDS011;60968;37.490;-122.288;2023-03-21T11:52:46;16.37;;;3.07;;
29466;SDS011;60968;37.490;-122.288;2023-03-21T12:05:33;11.50;;;3.27;;
29466;SDS011;60968;37.490;-122.288;2023-03-21T12:09:12;23.47;;;3.30;;
29466;SDS011;60968;37.490;-122.288;2023-03-21T12:12:50;13.60;;;2.77;;
29466;SDS011;60968;37.490;-122.288;2023-03-21T12:25:10;16.43;;;3.23;;
29466;SDS011;60968;37.490;-122.288;2023-03-21T12:37:56;16.20;;;3.80;;
29466;SDS011;60968;37.490;-122.288;2023-03-21T12:44:20;14.97;;;3.50;;
29466;SDS011;60968;37.490;-122.288;2023-03-21T12:47:28;10.03;;;3.13;;
29466;SDS011;60968;37.490;-122.288;2023-03-21T12:50:33;16.23;;;3.73;;
29466;SDS011;60968;37.490;-122.288;2023-03-21T12:53:51;21.27;;;4.07;;
29466;SDS011;60968;37.490;-122.288;2023-03-21T12:56:56;11.10;;;3.40;;
29466;SDS011;60968;37.490;-122.288;2023-03-21T13:00:15;12.43;;;3.30;;
29466;SDS011;60968;37.490;-122.288;2023-03-21T13:03:25;14.13;;;3.23;;
29466;SDS011;60968;37.490;-122.288;2023-03-21T13:06:29;16.27;;;3.10;;
29466;SDS011;60968;37.490;-122.288;2023-03-21T13:09:34;14.07;;;3.10;;
29466;SDS011;60968;37.490;-122.288;2023-03-21T13:22:28;13.90;;;3.57;;
29466;SDS011;60968;37.490;-122.288;2023-03-21T13:25:29;17.03;;;3.67;;
29466;SDS011;60968;37.490;-122.288;2023-03-21T13:28:32;18.63;;;4.10;;
29466;SDS011;60968;37.490;-122.288;2023-03-21T13:31:38;13.20;;;3.43;;
29466;SDS011;60968;37.490;-122.288;2023-03-21T13:34:43;22.40;;;4.50;;
29466;SDS011;60968;37.490;-122.288;2023-03-21T13:37:57;14.63;;;3.93;;
29466;SDS011;60968;37.490;-122.288;2023-03-21T13:41:02;22.90;;;3.90;;
29466;SDS011;60968;37.490;-122.288;2023-03-21T13:44:07;20.53;;;4.53;;
29466;SDS011;60968;37.490;-122.288;2023-03-21T13:50:55;17.37;;;4.87;;
29466;SDS011;60968;37.490;-122.288;2023-03-21T13:53:59;20.37;;;4.90;;
29466;SDS011;60968;37.490;-122.288;2023-03-21T13:57:03;21.80;;;5.63;;
29466;SDS011;60968;37.490;-122.288;2023-03-21T14:03:36;23.30;;;5.80;;
29466;SDS011;60968;37.490;-122.288;2023-03-21T14:06:41;26.47;;;6.20;;
29466;SDS011;60968;37.490;-122.288;2023-03-21T14:09:43;22.77;;;5.73;;
29466;SDS011;60968;37.490;-122.288;2023-03-21T14:12:45;25.80;;;6.07;;
29466;SDS011;60968;37.490;-122.288;2023-03-21T14:15:46;25.00;;;6.57;;
29466;SDS011;60968;37.490;-122.288;2023-03-21T14:18:54;22.63;;;7.50;;
29466;SDS011;60968;37.490;-122.288;2023-03-21T14:21:54;34.17;;;8.23;;
29466;SDS011;60968;37.490;-122.288;2023-03-21T14:24:58;26.07;;;8.20;;
29466;SDS011;60968;37.490;-122.288;2023-03-21T14:28:00;22.93;;;7.83;;
29466;SDS011;60968;37.490;-122.288;2023-03-21T14:31:02;28.03;;;8.50;;
29466;SDS011;60968;37.490;-122.288;2023-03-21T14:34:03;33.60;;;9.07;;
29466;SDS011;60968;37.490;-122.288;2023-03-21T14:37:06;47.47;;;9.63;;
29466;SDS011;60968;37.490;-122.288;2023-03-21T14:40:16;160.37;;;16.80;;
29466;SDS011;60968;37.490;-122.288;2023-03-21T14:43:18;100.77;;;13.00;;
29466;SDS011;60968;37.490;-122.288;2023-03-21T14:46:19;63.80;;;11.43;;
29466;SDS011;60968;37.490;-122.288;2023-03-21T14:49:21;404.20;;;29.13;;
29466;SDS011;60968;37.490;-122.288;2023-03-21T14:52:30;142.13;;;13.70;;
29466;SDS011;60968;37.490;-122.288;2023-03-21T14:55:39;127.83;;;15.17;;
29466;SDS011;60968;37.490;-122.288;2023-03-21T14:58:43;427.67;;;32.30;;
29466;SDS011;60968;37.490;-122.288;2023-03-21T15:01:44;272.33;;;22.87;;
29466;SDS011;60968;37.490;-122.288;2023-03-21T15:04:48;229.83;;;22.67;;
29466;SDS011;60968;37.490;-122.288;2023-03-21T15:07:59;736.60;;;54.77;;
29466;SDS011;60968;37.490;-122.288;2023-03-21T15:11:02;232.77;;;20.43;;
29466;SDS011;60968;37.490;-122.288;2023-03-21T15:14:06;436.10;;;33.50;;
29466;SDS011;60968;37.490;-122.288;2023-03-21T15:17:08;669.03;;;53.50;;
29466;SDS011;60968;37.490;-122.288;2023-03-21T15:20:14;691.40;;;55.17;;
29466;SDS011;60968;37.490;-122.288;2023-03-21T15:23:20;313.07;;;26.87;;
29466;SDS011;60968;37.490;-122.288;2023-03-21T15:26:24;232.80;;;21.77;;
29466;SDS011;60968;37.490;-122.288;2023-03-21T15:29:28;384.07;;;26.47;;
29466;SDS011;60968;37.490;-122.288;2023-03-21T15:32:32;471.37;;;35.30;;
29466;SDS011;60968;37.490;-122.288;2023-03-21T15:35:37;435.97;;;31.17;;
29466;SDS011;60968;37.490;-122.288;2023-03-21T15:38:40;308.47;;;23.30;;
29466;SDS011;60968;37.490;-122.288;2023-03-21T15:41:54;610.90;;;42.03;;
29466;SDS011;60968;37.490;-122.288;2023-03-21T15:44:57;732.80;;;56.07;;
29466;SDS011;60968;37.490;-122.288;2023-03-21T15:48:02;479.90;;;34.53;;
29466;SDS011;60968;37.490;-122.288;2023-03-21T15:51:24;1035.77;;;68.37;;
29466;SDS011;60968;37.490;-122.288;2023-03-21T15:54:27;456.97;;;34.50;;
29466;SDS011;60968;37.490;-122.288;2023-03-21T15:57:30;649.87;;;47.00;;
29466;SDS011;60968;37.490;-122.288;2023-03-21T16:00:34;528.60;;;41.50;;
29466;SDS011;60968;37.490;-122.288;2023-03-21T16:03:40;769.10;;;53.77;;
29466;SDS011;60968;37.490;-122.288;2023-03-21T16:10:32;265.00;;;27.40;;
29466;SDS011;60968;37.490;-122.288;2023-03-21T16:13:33;46.70;;;13.77;;
29466;SDS011;60968;37.490;-122.288;2023-03-21T16:16:34;31.43;;;11.30;;
29466;SDS011;60968;37.490;-122.288;2023-03-21T16:19:35;21.03;;;9.40;;
29466;SDS011;60968;37.490;-122.288;2023-03-21T16:22:35;40.17;;;10.53;;
29466;SDS011;60968;37.490;-122.288;2023-03-21T16:25:36;28.67;;;9.00;;
29466;SDS011;60968;37.490;-122.288;2023-03-21T16:28:36;212.57;;;18.80;;
29466;SDS011;60968;37.490;-122.288;2023-03-21T16:31:38;201.17;;;16.63;;
29466;SDS011;60968;37.490;-122.288;2023-03-21T16:34:38;74.63;;;9.97;;
29466;SDS011;60968;37.490;-122.288;2023-03-21T16:37:39;18.40;;;7.50;;
29466;SDS011;60968;37.490;-122.288;2023-03-21T16:40:40;17.07;;;6.70;;
29466;SDS011;60968;37.490;-122.288;2023-03-21T16:43:42;20.63;;;6.80;;
29466;SDS011;60968;37.490;-122.288;2023-03-21T16:46:43;17.67;;;7.13;;
29466;SDS011;60968;37.490;-122.288;2023-03-21T16:49:43;42.37;;;7.67;;
29466;SDS011;60968;37.490;-122.288;2023-03-21T16:52:44;27.87;;;7.70;;
29466;SDS011;60968;37.490;-122.288;2023-03-21T16:55:45;24.10;;;7.30;;
29466;SDS011;60968;37.490;-122.288;2023-03-21T16:58:50;20.73;;;7.20;;
29466;SDS011;60968;37.490;-122.288;2023-03-21T17:01:52;20.30;;;7.03;;
29466;SDS011;60968;37.490;-122.288;2023-03-21T17:04:53;16.60;;;7.00;;
29466;SDS011;60968;37.490;-122.288;2023-03-21T17:07:53;18.60;;;6.70;;
29466;SDS011;60968;37.490;-122.288;2023-03-21T17:10:54;16.20;;;5.90;;
29466;SDS011;60968;37.490;-122.288;2023-03-21T17:13:54;14.30;;;5.30;;
29466;SDS011;60968;37.490;-122.288;2023-03-21T17:16:55;11.10;;;5.33;;
29466;SDS011;60968;37.490;-122.288;2023-03-21T17:19:55;15.80;;;5.20;;
29466;SDS011;60968;37.490;-122.288;2023-03-21T17:22:56;14.70;;;5.00;;
29466;SDS011;60968;37.490;-122.288;2023-03-21T17:25:57;14.47;;;4.83;;
29466;SDS011;60968;37.490;-122.288;2023-03-21T17:28:57;12.30;;;4.37;;
29466;SDS011;60968;37.490;-122.288;2023-03-21T17:31:58;23.33;;;5.30;;
29466;SDS011;60968;37.490;-122.288;2023-03-21T17:34:58;15.93;;;4.67;;
29466;SDS011;60968;37.490;-122.288;2023-03-21T17:37:59;9.23;;;3.30;;
29466;SDS011;60968;37.490;-122.288;2023-03-21T17:40:59;7.00;;;3.07;;
29466;SDS011;60968;37.490;-122.288;2023-03-21T17:44:00;6.77;;;2.70;;
29466;SDS011;60968;37.490;-122.288;2023-03-21T17:47:00;9.73;;;2.60;;
29466;SDS011;60968;37.490;-122.288;2023-03-21T17:50:01;6.27;;;2.60;;
29466;SDS011;60968;37.490;-122.288;2023-03-21T17:53:02;6.77;;;2.60;;
29466;SDS011;60968;37.490;-122.288;2023-03-21T17:56:02;5.53;;;2.20;;
29466;SDS011;60968;37.490;-122.288;2023-03-21T17:59:04;4.87;;;2.50;;
29466;SDS011;60968;37.490;-122.288;2023-03-21T18:02:05;9.03;;;2.60;;
29466;SDS011;60968;37.490;-122.288;2023-03-21T18:05:08;6.27;;;2.17;;
29466;SDS011;60968;37.490;-122.288;2023-03-21T18:08:09;7.60;;;2.77;;
29466;SDS011;60968;37.490;-122.288;2023-03-21T18:11:10;8.30;;;2.73;;
29466;SDS011;60968;37.490;-122.288;2023-03-21T18:14:18;34.73;;;4.43;;
29466;SDS011;60968;37.490;-122.288;2023-03-21T18:17:18;8.73;;;2.90;;
29466;SDS011;60968;37.490;-122.288;2023-03-21T18:20:21;8.47;;;2.77;;
29466;SDS011;60968;37.490;-122.288;2023-03-21T18:23:23;6.47;;;2.80;;
29466;SDS011;60968;37.490;-122.288;2023-03-21T18:26:25;12.40;;;4.03;;
29466;SDS011;60968;37.490;-122.288;2023-03-21T18:29:25;16.90;;;3.37;;
29466;SDS011;60968;37.490;-122.288;2023-03-21T18:32:26;401.43;;;22.13;;
29466;SDS011;60968;37.490;-122.288;2023-03-21T18:35:26;424.13;;;28.73;;
29466;SDS011;60968;37.490;-122.288;2023-03-21T18:38:28;708.03;;;50.60;;
29466;SDS011;60968;37.490;-122.288;2023-03-21T18:41:32;771.17;;;52.57;;
29466;SDS011;60968;37.490;-122.288;2023-03-21T18:48:05;453.67;;;30.10;;
29466;SDS011;60968;37.490;-122.288;2023-03-21T18:51:06;142.00;;;9.90;;
29466;SDS011;60968;37.490;-122.288;2023-03-21T18:54:06;150.07;;;10.27;;
29466;SDS011;60968;37.490;-122.288;2023-03-21T18:57:07;205.07;;;13.23;;
29466;SDS011;60968;37.490;-122.288;2023-03-21T19:00:09;454.97;;;23.83;;
29466;SDS011;60968;37.490;-122.288;2023-03-21T19:03:10;142.07;;;8.90;;
29466;SDS011;60968;37.490;-122.288;2023-03-21T19:06:12;14.37;;;2.20;;